sensor_id;sensor_type;location;lat;lon;timestamp;P1;durP1;ratioP1;P2;durP2;ratioP2
11655;SDS011;5884;43.618;1.438;2022-12-18T05:45:37;18.27;;;12.77;;
11655;SDS011;5884;43.618;1.438;2022-12-18T05:48:05;18.03;;;13.07;;
11655;SDS011;5884;43.618;1.438;2022-12-18T05:50:33;16.43;;;12.57;;
11655;SDS011;5884;43.618;1.438;2022-12-18T05:53:01;17.57;;;12.40;;
11655;SDS011;5884;43.618;1.438;2022-12-18T05:55:32;15.97;;;12.20;;
11655;SDS011;5884;43.618;1.438;2022-12-18T05:58:00;15.83;;;11.57;;
11655;SDS011;5884;43.618;1.438;2022-12-18T06:00:27;16.00;;;11.83;;
11655;SDS011;5884;43.618;1.438;2022-12-18T06:02:56;13.53;;;11.20;;
11655;SDS011;5884;43.618;1.438;2022-12-18T06:05:24;15.70;;;11.50;;
11655;SDS011;5884;43.618;1.438;2022-12-18T06:07:51;14.67;;;11.17;;
11655;SDS011;5884;43.618;1.438;2022-12-18T06:10:19;16.63;;;11.67;;
11655;SDS011;5884;43.618;1.438;2022-12-18T06:12:46;15.87;;;11.40;;
11655;SDS011;5884;43.618;1.438;2022-12-18T06:15:13;14.53;;;11.13;;
11655;SDS011;5884;43.618;1.438;2022-12-18T06:17:41;16.00;;;11.30;;
11655;SDS011;5884;43.618;1.438;2022-12-18T06:20:10;14.80;;;11.93;;
11655;SDS011;5884;43.618;1.438;2022-12-18T06:22:37;17.50;;;12.03;;
11655;SDS011;5884;43.618;1.438;2022-12-18T06:25:05;16.97;;;12.53;;
11655;SDS011;5884;43.618;1.438;2022-12-18T06:27:33;17.10;;;11.97;;
11655;SDS011;5884;43.618;1.438;2022-12-18T06:30:00;13.50;;;11.33;;
11655;SDS011;5884;43.618;1.438;2022-12-18T06:32:28;16.90;;;11.70;;
11655;SDS011;5884;43.618;1.438;2022-12-18T06:34:55;17.87;;;11.70;;
11655;SDS011;5884;43.618;1.438;2022-12-18T06:37:24;15.50;;;11.57;;
11655;SDS011;5884;43.618;1.438;2022-12-18T06:39:51;15.10;;;11.80;;
11655;SDS011;5884;43.618;1.438;2022-12-18T06:42:19;17.07;;;12.40;;
11655;SDS011;5884;43.618;1.438;2022-12-18T06:44:49;13.57;;;10.97;;
11655;SDS011;5884;43.618;1.438;2022-12-18T06:47:16;15.83;;;11.20;;
11655;SDS011;5884;43.618;1.438;2022-12-18T06:49:44;14.10;;;11.53;;
11655;SDS011;5884;43.618;1.438;2022-12-18T06:52:11;16.13;;;11.97;;
11655;SDS011;5884;43.618;1.438;2022-12-18T06:54:42;17.33;;;12.73;;
11655;SDS011;5884;43.618;1.438;2022-12-18T06:57:09;15.93;;;11.93;;
11655;SDS011;5884;43.618;1.438;2022-12-18T06:59:37;15.43;;;12.07;;
11655;SDS011;5884;43.618;1.438;2022-12-18T07:02:04;16.23;;;11.80;;
11655;SDS011;5884;43.618;1.438;2022-12-18T07:04:31;16.73;;;12.30;;
11655;SDS011;5884;43.618;1.438;2022-12-18T07:06:59;17.30;;;12.20;;
11655;SDS011;5884;43.618;1.438;2022-12-18T07:09:26;16.33;;;12.60;;
11655;SDS011;5884;43.618;1.438;2022-12-18T07:11:55;17.23;;;13.33;;
11655;SDS011;5884;43.618;1.438;2022-12-18T07:14:22;20.20;;;13.87;;
11655;SDS011;5884;43.618;1.438;2022-12-18T07:16:49;21.30;;;15.37;;
11655;SDS011;5884;43.618;1.438;2022-12-18T07:19:16;21.00;;;15.10;;
11655;SDS011;5884;43.618;1.438;2022-12-18T07:21:44;21.67;;;15.20;;
11655;SDS011;5884;43.618;1.438;2022-12-18T07:24:11;22.13;;;16.27;;
11655;SDS011;5884;43.618;1.438;2022-12-18T07:26:38;22.47;;;16.30;;
11655;SDS011;5884;43.618;1.438;2022-12-18T07:29:07;25.53;;;17.50;;
11655;SDS011;5884;43.618;1.438;2022-12-18T07:31:34;25.77;;;17.50;;
11655;SDS011;5884;43.618;1.438;2022-12-18T07:34:01;23.57;;;16.07;;
11655;SDS011;5884;43.618;1.438;2022-12-18T07:36:28;23.70;;;16.20;;
11655;SDS011;5884;43.618;1.438;2022-12-18T07:38:56;21.37;;;16.00;;
11655;SDS011;5884;43.618;1.438;2022-12-18T07:41:23;20.27;;;15.13;;
11655;SDS011;5884;43.618;1.438;2022-12-18T07:43:50;22.83;;;15.70;;
11655;SDS011;5884;43.618;1.438;2022-12-18T07:46:19;19.53;;;14.70;;
11655;SDS011;5884;43.618;1.438;2022-12-18T07:48:46;23.30;;;16.00;;
11655;SDS011;5884;43.618;1.438;2022-12-18T07:51:13;21.33;;;15.70;;
11655;SDS011;5884;43.618;1.438;2022-12-18T07:53:41;23.17;;;16.13;;
11655;SDS011;5884;43.618;1.438;2022-12-18T07:56:09;26.00;;;16.10;;
11655;SDS011;5884;43.618;1.438;2022-12-18T07:58:38;30.67;;;17.63;;
11655;SDS011;5884;43.618;1.438;2022-12-18T08:01:06;28.53;;;17.93;;
11655;SDS011;5884;43.618;1.438;2022-12-18T08:03:36;27.43;;;18.70;;
11655;SDS011;5884;43.618;1.438;2022-12-18T08:06:05;26.83;;;18.50;;
11655;SDS011;5884;43.618;1.438;2022-12-18T08:08:35;26.07;;;18.00;;
11655;SDS011;5884;43.618;1.438;2022-12-18T08:11:02;27.10;;;18.77;;
11655;SDS011;5884;43.618;1.438;2022-12-18T08:13:30;24.77;;;17.00;;
11655;SDS011;5884;43.618;1.438;2022-12-18T08:15:58;23.67;;;16.10;;
11655;SDS011;5884;43.618;1.438;2022-12-18T08:18:27;26.57;;;16.80;;
11655;SDS011;5884;43.618;1.438;2022-12-18T08:20:56;23.53;;;16.37;;
11655;SDS011;5884;43.618;1.438;2022-12-18T08:23:23;21.60;;;15.60;;
11655;SDS011;5884;43.618;1.438;2022-12-18T08:25:51;21.97;;;15.40;;
11655;SDS011;5884;43.618;1.438;2022-12-18T08:28:18;20.83;;;15.00;;
11655;SDS011;5884;43.618;1.438;2022-12-18T08:30:45;20.70;;;14.97;;
11655;SDS011;5884;43.618;1.438;2022-12-18T08:33:12;20.30;;;14.47;;
11655;SDS011;5884;43.618;1.438;2022-12-18T08:35:40;19.13;;;14.50;;
11655;SDS011;5884;43.618;1.438;2022-12-18T08:38:08;18.50;;;13.37;;
11655;SDS011;5884;43.618;1.438;2022-12-18T08:40:35;21.27;;;15.90;;
11655;SDS011;5884;43.618;1.438;2022-12-18T08:43:03;21.20;;;14.57;;
11655;SDS011;5884;43.618;1.438;2022-12-18T08:45:47;18.00;;;14.13;;
11655;SDS011;5884;43.618;1.438;2022-12-18T08:48:15;21.90;;;15.57;;
11655;SDS011;5884;43.618;1.438;2022-12-18T08:50:43;19.57;;;14.47;;
11655;SDS011;5884;43.618;1.438;2022-12-18T08:53:11;23.33;;;14.97;;
11655;SDS011;5884;43.618;1.438;2022-12-18T08:55:39;19.50;;;14.43;;
11655;SDS011;5884;43.618;1.438;2022-12-18T08:58:06;21.07;;;14.90;;
11655;SDS011;5884;43.618;1.438;2022-12-18T09:00:34;20.83;;;15.47;;
11655;SDS011;5884;43.618;1.438;2022-12-18T09:03:04;20.73;;;15.20;;
11655;SDS011;5884;43.618;1.438;2022-12-18T09:05:31;20.20;;;14.83;;
11655;SDS011;5884;43.618;1.438;2022-12-18T09:07:58;21.30;;;15.87;;
11655;SDS011;5884;43.618;1.438;2022-12-18T09:10:27;21.97;;;16.27;;
11655;SDS011;5884;43.618;1.438;2022-12-18T09:12:54;24.67;;;16.40;;
11655;SDS011;5884;43.618;1.438;2022-12-18T09:15:21;22.57;;;15.90;;
11655;SDS011;5884;43.618;1.438;2022-12-18T09:17:48;21.10;;;15.13;;
11655;SDS011;5884;43.618;1.438;2022-12-18T09:20:18;16.77;;;10.47;;
11655;SDS011;5884;43.618;1.438;2022-12-18T09:22:45;15.53;;;10.30;;
11655;SDS011;5884;43.618;1.438;2022-12-18T09:25:13;14.47;;;9.77;;
11655;SDS011;5884;43.618;1.438;2022-12-18T09:27:41;14.37;;;10.23;;
11655;SDS011;5884;43.618;1.438;2022-12-18T09:30:09;13.50;;;9.43;;
11655;SDS011;5884;43.618;1.438;2022-12-18T09:32:37;12.17;;;8.73;;
11655;SDS011;5884;43.618;1.438;2022-12-18T09:35:04;15.10;;;8.53;;
11655;SDS011;5884;43.618;1.438;2022-12-18T09:37:32;12.23;;;8.90;;
11655;SDS011;5884;43.618;1.438;2022-12-18T09:39:59;13.80;;;8.43;;
11655;SDS011;5884;43.618;1.438;2022-12-18T09:42:27;11.37;;;8.40;;
11655;SDS011;5884;43.618;1.438;2022-12-18T09:44:55;15.67;;;8.60;;
11655;SDS011;5884;43.618;1.438;2022-12-18T09:47:25;13.70;;;7.93;;
11655;SDS011;5884;43.618;1.438;2022-12-18T09:49:58;11.60;;;7.17;;
11655;SDS011;5884;43.618;1.438;2022-12-18T09:52:32;11.63;;;7.83;;
11655;SDS011;5884;43.618;1.438;2022-12-18T09:55:09;10.97;;;7.30;;
11655;SDS011;5884;43.618;1.438;2022-12-18T09:57:52;10.27;;;7.63;;
11655;SDS011;5884;43.618;1.438;2022-12-18T10:00:25;10.40;;;7.03;;
11655;SDS011;5884;43.618;1.438;2022-12-18T10:02:53;9.10;;;6.57;;
11655;SDS011;5884;43.618;1.438;2022-12-18T10:05:28;9.67;;;6.93;;
11655;SDS011;5884;43.618;1.438;2022-12-18T10:08:04;8.83;;;5.97;;
11655;SDS011;5884;43.618;1.438;2022-12-18T10:10:38;9.07;;;6.00;;
11655;SDS011;5884;43.618;1.438;2022-12-18T10:13:13;10.57;;;6.20;;
11655;SDS011;5884;43.618;1.438;2022-12-18T10:15:54;12.87;;;6.77;;
11655;SDS011;5884;43.618;1.438;2022-12-18T10:18:36;7.43;;;6.20;;
11655;SDS011;5884;43.618;1.438;2022-12-18T10:21:23;10.57;;;6.20;;
11655;SDS011;5884;43.618;1.438;2022-12-18T10:23:58;10.10;;;5.73;;
11655;SDS011;5884;43.618;1.438;2022-12-18T10:26:38;6.60;;;4.93;;
11655;SDS011;5884;43.618;1.438;2022-12-18T10:29:08;7.03;;;4.83;;
11655;SDS011;5884;43.618;1.438;2022-12-18T10:31:41;6.73;;;4.97;;
11655;SDS011;5884;43.618;1.438;2022-12-18T10:34:09;8.03;;;4.87;;
11655;SDS011;5884;43.618;1.438;2022-12-18T10:36:37;9.07;;;5.10;;
11655;SDS011;5884;43.618;1.438;2022-12-18T10:39:14;7.10;;;5.27;;
11655;SDS011;5884;43.618;1.438;2022-12-18T10:41:43;5.80;;;4.80;;
11655;SDS011;5884;43.618;1.438;2022-12-18T10:44:12;6.73;;;4.97;;
11655;SDS011;5884;43.618;1.438;2022-12-18T10:46:45;6.50;;;4.67;;
11655;SDS011;5884;43.618;1.438;2022-12-18T10:49:19;7.07;;;4.93;;
11655;SDS011;5884;43.618;1.438;2022-12-18T10:51:49;7.07;;;4.60;;
11655;SDS011;5884;43.618;1.438;2022-12-18T10:54:18;6.33;;;4.97;;
11655;SDS011;5884;43.618;1.438;2022-12-18T10:56:48;6.00;;;5.13;;
11655;SDS011;5884;43.618;1.438;2022-12-18T10:59:16;8.87;;;4.50;;
11655;SDS011;5884;43.618;1.438;2022-12-18T11:01:49;7.20;;;4.67;;
11655;SDS011;5884;43.618;1.438;2022-12-18T11:04:20;7.17;;;4.53;;
11655;SDS011;5884;43.618;1.438;2022-12-18T11:06:56;8.33;;;4.67;;
11655;SDS011;5884;43.618;1.438;2022-12-18T11:09:26;6.10;;;4.50;;
11655;SDS011;5884;43.618;1.438;2022-12-18T11:11:57;5.00;;;4.30;;
11655;SDS011;5884;43.618;1.438;2022-12-18T11:14:27;8.33;;;4.80;;
11655;SDS011;5884;43.618;1.438;2022-12-18T11:16:58;6.23;;;4.10;;
11655;SDS011;5884;43.618;1.438;2022-12-18T11:19:30;7.10;;;4.33;;
11655;SDS011;5884;43.618;1.438;2022-12-18T11:22:00;6.53;;;4.33;;
11655;SDS011;5884;43.618;1.438;2022-12-18T11:24:49;7.43;;;5.00;;
11655;SDS011;5884;43.618;1.438;2022-12-18T11:27:22;6.03;;;3.93;;
11655;SDS011;5884;43.618;1.438;2022-12-18T11:29:50;6.43;;;4.50;;
11655;SDS011;5884;43.618;1.438;2022-12-18T11:32:29;5.43;;;4.00;;
11655;SDS011;5884;43.618;1.438;2022-12-18T11:35:03;6.60;;;4.27;;
11655;SDS011;5884;43.618;1.438;2022-12-18T11:37:40;8.23;;;5.20;;
11655;SDS011;5884;43.618;1.438;2022-12-18T11:40:14;6.67;;;4.47;;
11655;SDS011;5884;43.618;1.438;2022-12-18T11:42:45;6.43;;;4.37;;
11655;SDS011;5884;43.618;1.438;2022-12-18T11:45:23;4.83;;;4.30;;
11655;SDS011;5884;43.618;1.438;2022-12-18T11:47:58;5.57;;;4.17;;
11655;SDS011;5884;43.618;1.438;2022-12-18T11:50:32;5.43;;;4.10;;
11655;SDS011;5884;43.618;1.438;2022-12-18T11:53:15;5.60;;;3.90;;
11655;SDS011;5884;43.618;1.438;2022-12-18T11:55:46;6.03;;;3.80;;
11655;SDS011;5884;43.618;1.438;2022-12-18T11:58:41;5.53;;;4.70;;
11655;SDS011;5884;43.618;1.438;2022-12-18T12:01:16;7.60;;;4.37;;
11655;SDS011;5884;43.618;1.438;2022-12-18T12:04:10;5.40;;;4.47;;
11655;SDS011;5884;43.618;1.438;2022-12-18T12:07:20;5.87;;;4.40;;
11655;SDS011;5884;43.618;1.438;2022-12-18T12:10:03;6.20;;;4.53;;
11655;SDS011;5884;43.618;1.438;2022-12-18T12:12:52;7.27;;;4.97;;
11655;SDS011;5884;43.618;1.438;2022-12-18T12:15:38;5.50;;;4.20;;
11655;SDS011;5884;43.618;1.438;2022-12-18T12:18:20;8.07;;;4.40;;
11655;SDS011;5884;43.618;1.438;2022-12-18T12:21:04;6.40;;;4.53;;
11655;SDS011;5884;43.618;1.438;2022-12-18T12:23:43;7.73;;;4.90;;
11655;SDS011;5884;43.618;1.438;2022-12-18T12:26:20;6.83;;;4.57;;
11655;SDS011;5884;43.618;1.438;2022-12-18T12:28:58;6.53;;;4.77;;
11655;SDS011;5884;43.618;1.438;2022-12-18T12:31:38;6.13;;;4.73;;
11655;SDS011;5884;43.618;1.438;2022-12-18T12:34:22;8.53;;;4.97;;
11655;SDS011;5884;43.618;1.438;2022-12-18T12:37:00;8.63;;;4.90;;
11655;SDS011;5884;43.618;1.438;2022-12-18T12:39:42;5.97;;;4.70;;
11655;SDS011;5884;43.618;1.438;2022-12-18T12:42:15;6.37;;;4.90;;
11655;SDS011;5884;43.618;1.438;2022-12-18T12:45:05;7.27;;;5.00;;
11655;SDS011;5884;43.618;1.438;2022-12-18T12:47:41;8.47;;;5.17;;
11655;SDS011;5884;43.618;1.438;2022-12-18T12:50:12;9.50;;;5.00;;
11655;SDS011;5884;43.618;1.438;2022-12-18T12:52:45;9.23;;;5.10;;
11655;SDS011;5884;43.618;1.438;2022-12-18T12:55:15;11.40;;;5.30;;
11655;SDS011;5884;43.618;1.438;2022-12-18T12:57:46;6.73;;;4.50;;
11655;SDS011;5884;43.618;1.438;2022-12-18T13:00:22;7.13;;;5.03;;
11655;SDS011;5884;43.618;1.438;2022-12-18T13:02:51;6.57;;;5.40;;
11655;SDS011;5884;43.618;1.438;2022-12-18T13:05:28;6.67;;;5.13;;
11655;SDS011;5884;43.618;1.438;2022-12-18T13:08:06;6.30;;;5.00;;
11655;SDS011;5884;43.618;1.438;2022-12-18T13:10:36;8.63;;;5.40;;
11655;SDS011;5884;43.618;1.438;2022-12-18T13:13:06;6.27;;;4.97;;
11655;SDS011;5884;43.618;1.438;2022-12-18T13:15:36;6.30;;;4.70;;
11655;SDS011;5884;43.618;1.438;2022-12-18T13:18:16;7.70;;;5.50;;
11655;SDS011;5884;43.618;1.438;2022-12-18T13:20:48;7.70;;;5.50;;
11655;SDS011;5884;43.618;1.438;2022-12-18T13:29:01;6.90;;;5.30;;
11655;SDS011;5884;43.618;1.438;2022-12-18T13:34:26;6.80;;;4.97;;
11655;SDS011;5884;43.618;1.438;2022-12-18T13:36:56;9.30;;;5.57;;
11655;SDS011;5884;43.618;1.438;2022-12-18T13:40:06;8.07;;;4.57;;
11655;SDS011;5884;43.618;1.438;2022-12-18T13:43:26;5.67;;;5.07;;
11655;SDS011;5884;43.618;1.438;2022-12-18T13:46:03;7.80;;;4.80;;
11655;SDS011;5884;43.618;1.438;2022-12-18T13:48:48;5.80;;;4.70;;
11655;SDS011;5884;43.618;1.438;2022-12-18T13:51:24;7.40;;;4.80;;
11655;SDS011;5884;43.618;1.438;2022-12-18T13:53:53;6.93;;;5.20;;
11655;SDS011;5884;43.618;1.438;2022-12-18T13:56:25;7.10;;;4.50;;
11655;SDS011;5884;43.618;1.438;2022-12-18T13:59:12;8.37;;;4.87;;
11655;SDS011;5884;43.618;1.438;2022-12-18T14:01:46;6.00;;;5.00;;
11655;SDS011;5884;43.618;1.438;2022-12-18T14:04:19;9.20;;;5.07;;
11655;SDS011;5884;43.618;1.438;2022-12-18T14:06:54;6.27;;;4.83;;
11655;SDS011;5884;43.618;1.438;2022-12-18T14:09:25;9.20;;;5.27;;
11655;SDS011;5884;43.618;1.438;2022-12-18T14:11:57;8.13;;;5.03;;
11655;SDS011;5884;43.618;1.438;2022-12-18T14:14:44;8.50;;;5.10;;
11655;SDS011;5884;43.618;1.438;2022-12-18T14:17:14;6.50;;;5.40;;
11655;SDS011;5884;43.618;1.438;2022-12-18T14:19:42;7.23;;;5.27;;
11655;SDS011;5884;43.618;1.438;2022-12-18T14:22:13;7.33;;;5.17;;
11655;SDS011;5884;43.618;1.438;2022-12-18T14:24:43;6.37;;;5.07;;
11655;SDS011;5884;43.618;1.438;2022-12-18T14:27:19;7.30;;;4.93;;
11655;SDS011;5884;43.618;1.438;2022-12-18T14:29:53;6.43;;;4.70;;
11655;SDS011;5884;43.618;1.438;2022-12-18T14:32:23;6.97;;;4.60;;
11655;SDS011;5884;43.618;1.438;2022-12-18T14:34:53;7.23;;;5.00;;
11655;SDS011;5884;43.618;1.438;2022-12-18T14:37:21;7.17;;;4.90;;
11655;SDS011;5884;43.618;1.438;2022-12-18T14:39:54;7.20;;;5.20;;
11655;SDS011;5884;43.618;1.438;2022-12-18T14:42:25;5.27;;;4.33;;
11655;SDS011;5884;43.618;1.438;2022-12-18T14:48:00;6.57;;;4.83;;
11655;SDS011;5884;43.618;1.438;2022-12-18T14:50:32;10.17;;;4.73;;
11655;SDS011;5884;43.618;1.438;2022-12-18T14:53:00;9.37;;;4.53;;
11655;SDS011;5884;43.618;1.438;2022-12-18T14:55:27;6.13;;;4.53;;
11655;SDS011;5884;43.618;1.438;2022-12-18T14:57:56;8.97;;;4.77;;
11655;SDS011;5884;43.618;1.438;2022-12-18T15:00:24;9.20;;;4.30;;
11655;SDS011;5884;43.618;1.438;2022-12-18T15:02:53;6.83;;;4.73;;
11655;SDS011;5884;43.618;1.438;2022-12-18T15:05:24;8.77;;;5.57;;
11655;SDS011;5884;43.618;1.438;2022-12-18T15:07:54;6.83;;;5.17;;
11655;SDS011;5884;43.618;1.438;2022-12-18T15:10:25;8.60;;;5.00;;
11655;SDS011;5884;43.618;1.438;2022-12-18T15:13:07;9.70;;;5.40;;
11655;SDS011;5884;43.618;1.438;2022-12-18T15:15:47;7.20;;;4.87;;
11655;SDS011;5884;43.618;1.438;2022-12-18T15:18:15;8.43;;;5.10;;
11655;SDS011;5884;43.618;1.438;2022-12-18T15:20:46;7.07;;;4.97;;
11655;SDS011;5884;43.618;1.438;2022-12-18T15:23:17;7.67;;;5.20;;
11655;SDS011;5884;43.618;1.438;2022-12-18T15:25:48;7.93;;;5.30;;
11655;SDS011;5884;43.618;1.438;2022-12-18T15:28:25;8.30;;;4.97;;
11655;SDS011;5884;43.618;1.438;2022-12-18T15:31:05;8.73;;;5.87;;
11655;SDS011;5884;43.618;1.438;2022-12-18T15:36:50;8.77;;;5.30;;
11655;SDS011;5884;43.618;1.438;2022-12-18T15:39:18;9.50;;;5.53;;
11655;SDS011;5884;43.618;1.438;2022-12-18T15:41:45;9.77;;;5.10;;
11655;SDS011;5884;43.618;1.438;2022-12-18T15:44:28;7.77;;;5.10;;
11655;SDS011;5884;43.618;1.438;2022-12-18T15:46:55;7.80;;;5.30;;
11655;SDS011;5884;43.618;1.438;2022-12-18T15:49:23;10.17;;;5.07;;
11655;SDS011;5884;43.618;1.438;2022-12-18T15:51:51;9.30;;;5.73;;
11655;SDS011;5884;43.618;1.438;2022-12-18T15:54:20;10.40;;;5.53;;
11655;SDS011;5884;43.618;1.438;2022-12-18T15:57:09;8.13;;;5.70;;
11655;SDS011;5884;43.618;1.438;2022-12-18T15:59:52;7.63;;;5.03;;
11655;SDS011;5884;43.618;1.438;2022-12-18T16:02:23;11.70;;;5.73;;
11655;SDS011;5884;43.618;1.438;2022-12-18T16:04:52;10.23;;;5.80;;
11655;SDS011;5884;43.618;1.438;2022-12-18T16:07:20;9.17;;;5.53;;
11655;SDS011;5884;43.618;1.438;2022-12-18T16:09:47;10.17;;;6.03;;
11655;SDS011;5884;43.618;1.438;2022-12-18T16:12:15;11.13;;;5.87;;
11655;SDS011;5884;43.618;1.438;2022-12-18T16:14:45;10.80;;;6.30;;
11655;SDS011;5884;43.618;1.438;2022-12-18T16:17:14;10.00;;;6.00;;
11655;SDS011;5884;43.618;1.438;2022-12-18T16:19:41;10.00;;;6.03;;
11655;SDS011;5884;43.618;1.438;2022-12-18T16:22:15;9.77;;;5.97;;
11655;SDS011;5884;43.618;1.438;2022-12-18T16:24:47;8.50;;;6.43;;
11655;SDS011;5884;43.618;1.438;2022-12-18T16:27:16;12.67;;;6.07;;
11655;SDS011;5884;43.618;1.438;2022-12-18T16:29:43;9.83;;;6.33;;
11655;SDS011;5884;43.618;1.438;2022-12-18T16:32:11;8.77;;;6.73;;
11655;SDS011;5884;43.618;1.438;2022-12-18T16:34:43;10.13;;;6.70;;
11655;SDS011;5884;43.618;1.438;2022-12-18T16:37:12;9.23;;;5.60;;
11655;SDS011;5884;43.618;1.438;2022-12-18T16:39:41;9.87;;;6.23;;
11655;SDS011;5884;43.618;1.438;2022-12-18T16:42:10;11.50;;;7.07;;
11655;SDS011;5884;43.618;1.438;2022-12-18T16:44:41;10.40;;;8.07;;
11655;SDS011;5884;43.618;1.438;2022-12-18T16:47:09;13.03;;;6.77;;
11655;SDS011;5884;43.618;1.438;2022-12-18T16:49:38;13.73;;;7.47;;
11655;SDS011;5884;43.618;1.438;2022-12-18T16:52:05;15.37;;;8.57;;
11655;SDS011;5884;43.618;1.438;2022-12-18T16:54:33;15.27;;;7.80;;
11655;SDS011;5884;43.618;1.438;2022-12-18T16:57:00;13.43;;;7.93;;
11655;SDS011;5884;43.618;1.438;2022-12-18T16:59:29;14.47;;;8.13;;
11655;SDS011;5884;43.618;1.438;2022-12-18T17:01:56;14.80;;;7.80;;
11655;SDS011;5884;43.618;1.438;2022-12-18T17:04:24;12.20;;;8.27;;
11655;SDS011;5884;43.618;1.438;2022-12-18T17:06:52;15.37;;;8.60;;
11655;SDS011;5884;43.618;1.438;2022-12-18T17:09:20;18.00;;;10.33;;
11655;SDS011;5884;43.618;1.438;2022-12-18T17:11:50;15.40;;;8.97;;
11655;SDS011;5884;43.618;1.438;2022-12-18T17:14:19;14.87;;;8.00;;
11655;SDS011;5884;43.618;1.438;2022-12-18T17:16:49;18.97;;;8.13;;
11655;SDS011;5884;43.618;1.438;2022-12-18T17:19:17;15.37;;;8.30;;
11655;SDS011;5884;43.618;1.438;2022-12-18T17:21:46;12.20;;;8.17;;
11655;SDS011;5884;43.618;1.438;2022-12-18T17:24:17;8.90;;;6.67;;
11655;SDS011;5884;43.618;1.438;2022-12-18T17:26:45;15.63;;;7.80;;
11655;SDS011;5884;43.618;1.438;2022-12-18T17:29:14;16.53;;;7.07;;
11655;SDS011;5884;43.618;1.438;2022-12-18T17:31:43;15.47;;;7.73;;
11655;SDS011;5884;43.618;1.438;2022-12-18T17:34:11;13.27;;;7.33;;
11655;SDS011;5884;43.618;1.438;2022-12-18T17:36:39;12.83;;;6.80;;
11655;SDS011;5884;43.618;1.438;2022-12-18T17:39:07;11.40;;;6.50;;
11655;SDS011;5884;43.618;1.438;2022-12-18T17:41:39;11.93;;;6.33;;
11655;SDS011;5884;43.618;1.438;2022-12-18T17:44:07;12.23;;;6.33;;
11655;SDS011;5884;43.618;1.438;2022-12-18T17:46:35;12.37;;;6.00;;
11655;SDS011;5884;43.618;1.438;2022-12-18T17:49:02;15.07;;;6.43;;
11655;SDS011;5884;43.618;1.438;2022-12-18T17:51:30;12.43;;;6.03;;
11655;SDS011;5884;43.618;1.438;2022-12-18T17:53:58;14.33;;;5.33;;
11655;SDS011;5884;43.618;1.438;2022-12-18T17:56:25;10.60;;;5.70;;
11655;SDS011;5884;43.618;1.438;2022-12-18T17:58:54;13.43;;;5.70;;
11655;SDS011;5884;43.618;1.438;2022-12-18T18:01:22;14.67;;;6.13;;
11655;SDS011;5884;43.618;1.438;2022-12-18T18:03:51;12.17;;;5.10;;
11655;SDS011;5884;43.618;1.438;2022-12-18T18:06:19;11.00;;;5.00;;
11655;SDS011;5884;43.618;1.438;2022-12-18T18:08:48;13.43;;;6.40;;
11655;SDS011;5884;43.618;1.438;2022-12-18T18:11:17;13.13;;;6.00;;
11655;SDS011;5884;43.618;1.438;2022-12-18T18:14:06;13.20;;;5.37;;
11655;SDS011;5884;43.618;1.438;2022-12-18T18:16:39;11.70;;;5.67;;
11655;SDS011;5884;43.618;1.438;2022-12-18T18:19:10;14.90;;;5.37;;
11655;SDS011;5884;43.618;1.438;2022-12-18T18:21:39;12.17;;;6.13;;
11655;SDS011;5884;43.618;1.438;2022-12-18T18:24:09;12.93;;;5.90;;
11655;SDS011;5884;43.618;1.438;2022-12-18T18:26:39;12.80;;;5.90;;
11655;SDS011;5884;43.618;1.438;2022-12-18T18:29:10;14.13;;;5.50;;
11655;SDS011;5884;43.618;1.438;2022-12-18T18:31:40;11.53;;;5.97;;
11655;SDS011;5884;43.618;1.438;2022-12-18T18:34:09;16.43;;;5.70;;
11655;SDS011;5884;43.618;1.438;2022-12-18T18:36:40;12.60;;;5.57;;
11655;SDS011;5884;43.618;1.438;2022-12-18T18:39:07;12.93;;;5.70;;
11655;SDS011;5884;43.618;1.438;2022-12-18T18:41:35;8.53;;;5.00;;
11655;SDS011;5884;43.618;1.438;2022-12-18T18:44:02;14.87;;;6.43;;
11655;SDS011;5884;43.618;1.438;2022-12-18T18:46:31;12.87;;;5.30;;
11655;SDS011;5884;43.618;1.438;2022-12-18T18:48:59;12.07;;;5.10;;
11655;SDS011;5884;43.618;1.438;2022-12-18T18:51:26;12.43;;;5.33;;
11655;SDS011;5884;43.618;1.438;2022-12-18T18:53:53;11.60;;;4.90;;
11655;SDS011;5884;43.618;1.438;2022-12-18T18:56:21;12.80;;;5.10;;
11655;SDS011;5884;43.618;1.438;2022-12-18T18:58:51;11.93;;;5.23;;
11655;SDS011;5884;43.618;1.438;2022-12-18T19:01:20;14.43;;;5.17;;
11655;SDS011;5884;43.618;1.438;2022-12-18T19:03:50;11.40;;;5.73;;
11655;SDS011;5884;43.618;1.438;2022-12-18T19:06:19;13.27;;;6.63;;
11655;SDS011;5884;43.618;1.438;2022-12-18T19:08:49;12.37;;;5.30;;
11655;SDS011;5884;43.618;1.438;2022-12-18T19:11:17;12.90;;;4.57;;
11655;SDS011;5884;43.618;1.438;2022-12-18T19:14:05;12.03;;;4.93;;
11655;SDS011;5884;43.618;1.438;2022-12-18T19:16:34;11.50;;;5.13;;
11655;SDS011;5884;43.618;1.438;2022-12-18T19:19:04;10.07;;;5.37;;
11655;SDS011;5884;43.618;1.438;2022-12-18T19:21:31;11.67;;;4.93;;
11655;SDS011;5884;43.618;1.438;2022-12-18T19:23:59;14.47;;;4.77;;
11655;SDS011;5884;43.618;1.438;2022-12-18T19:26:26;11.80;;;5.00;;
11655;SDS011;5884;43.618;1.438;2022-12-18T19:28:58;14.47;;;5.17;;
11655;SDS011;5884;43.618;1.438;2022-12-18T19:31:27;13.33;;;5.70;;
11655;SDS011;5884;43.618;1.438;2022-12-18T19:33:54;16.47;;;5.87;;
11655;SDS011;5884;43.618;1.438;2022-12-18T19:36:24;11.50;;;5.60;;
11655;SDS011;5884;43.618;1.438;2022-12-18T19:38:54;14.57;;;5.90;;
11655;SDS011;5884;43.618;1.438;2022-12-18T19:41:24;11.63;;;5.33;;
11655;SDS011;5884;43.618;1.438;2022-12-18T19:43:52;21.10;;;6.23;;
11655;SDS011;5884;43.618;1.438;2022-12-18T19:46:20;9.73;;;5.63;;
11655;SDS011;5884;43.618;1.438;2022-12-18T19:48:49;15.43;;;5.37;;
11655;SDS011;5884;43.618;1.438;2022-12-18T19:51:17;16.87;;;5.40;;
11655;SDS011;5884;43.618;1.438;2022-12-18T19:53:49;14.17;;;5.20;;
11655;SDS011;5884;43.618;1.438;2022-12-18T19:56:17;13.20;;;5.43;;
11655;SDS011;5884;43.618;1.438;2022-12-18T19:58:48;11.97;;;4.83;;
11655;SDS011;5884;43.618;1.438;2022-12-18T20:01:16;12.10;;;5.23;;
11655;SDS011;5884;43.618;1.438;2022-12-18T20:03:45;12.63;;;5.30;;
11655;SDS011;5884;43.618;1.438;2022-12-18T20:06:13;9.90;;;5.27;;
11655;SDS011;5884;43.618;1.438;2022-12-18T20:08:45;14.73;;;5.40;;
11655;SDS011;5884;43.618;1.438;2022-12-18T20:11:14;10.83;;;5.30;;
11655;SDS011;5884;43.618;1.438;2022-12-18T20:13:41;15.33;;;5.40;;
11655;SDS011;5884;43.618;1.438;2022-12-18T20:16:09;12.83;;;5.63;;
11655;SDS011;5884;43.618;1.438;2022-12-18T20:18:36;14.60;;;4.93;;
11655;SDS011;5884;43.618;1.438;2022-12-18T20:21:03;13.70;;;5.30;;
11655;SDS011;5884;43.618;1.438;2022-12-18T20:23:31;11.77;;;5.03;;
11655;SDS011;5884;43.618;1.438;2022-12-18T20:25:59;14.70;;;5.07;;
11655;SDS011;5884;43.618;1.438;2022-12-18T20:28:28;13.63;;;5.60;;
11655;SDS011;5884;43.618;1.438;2022-12-18T20:30:59;12.60;;;4.97;;
11655;SDS011;5884;43.618;1.438;2022-12-18T20:33:27;11.60;;;5.10;;
11655;SDS011;5884;43.618;1.438;2022-12-18T20:35:58;12.50;;;4.57;;
11655;SDS011;5884;43.618;1.438;2022-12-18T20:38:27;19.47;;;5.60;;
11655;SDS011;5884;43.618;1.438;2022-12-18T20:40:55;14.93;;;4.87;;
11655;SDS011;5884;43.618;1.438;2022-12-18T20:43:23;13.50;;;4.63;;
11655;SDS011;5884;43.618;1.438;2022-12-18T20:45:58;13.73;;;4.93;;
11655;SDS011;5884;43.618;1.438;2022-12-18T20:48:27;11.07;;;4.80;;
11655;SDS011;5884;43.618;1.438;2022-12-18T20:50:58;15.20;;;4.90;;
11655;SDS011;5884;43.618;1.438;2022-12-18T20:53:25;13.30;;;4.67;;
11655;SDS011;5884;43.618;1.438;2022-12-18T20:55:53;14.77;;;5.33;;
11655;SDS011;5884;43.618;1.438;2022-12-18T20:58:20;12.20;;;4.87;;
11655;SDS011;5884;43.618;1.438;2022-12-18T21:00:47;15.27;;;5.27;;
11655;SDS011;5884;43.618;1.438;2022-12-18T21:03:17;10.63;;;4.60;;
11655;SDS011;5884;43.618;1.438;2022-12-18T21:05:44;15.53;;;4.50;;
11655;SDS011;5884;43.618;1.438;2022-12-18T21:08:11;9.50;;;4.70;;
11655;SDS011;5884;43.618;1.438;2022-12-18T21:10:38;11.90;;;4.97;;
11655;SDS011;5884;43.618;1.438;2022-12-18T21:13:06;8.90;;;4.40;;